Darstellungsparameter: Aktuell verwendete Einstellungen:
Skalierung der Graphiken ... ?
xyx+y,   Skalierungsfaktor:      Skalierung: Modus: x, Faktor: 1
Darstellungszeitraum ... ?
Vom - - bis: - -   Zeitraum: 13.10.2020 - 13.11.2020
Min/Max/Avg-Anzeige ... ?
Zeige MMA aktuell
Zeige MMA Monat
Zeige MMA alles
Zeige --A aktuell
Zeige --A Monat
Zeige --A alles
Keine MMA-Anzeige
MMA:
Average (ber die Originaldaten)
MMA-Basis: 23.02.2003 - 30.09.2020
Quicknavigation für Darstellung... ?
Tage:      1T, 2T, 3T, 5T -1T -2T -3T -5T +1T +2T +3T +5T
Wochen: 1W, 2W, 3W -1W -2W -3W +1W +2W +3W
Monate: 1M, 3M, 6M -1M -3M -6M +1M +3M +6M
Jahre:    1J, 3J, 5J, 10J -1J -3J -5J -10J +1J +3J +5J +10J
Nutze für die Darstellung ... ?
Originaldaten oder ...
Mittelwerte Minima Maxima auf...
Stundenbasis Tagesbasis Wochenbasis
Monatsbasis Jahresbasis      Datenbasis: Mittelwerte auf Stundenbasis
Darstellen als:
Statistik (Auto) Statistik J:M      Darstellung:
Zur Graphik,    zurück zur Übersicht aller Sensoren.
 
Tabellarische Datenbersicht: ?
 
Sensor: Nr:Datum:Temp:Abs-Feuchte:Windchill:Wind:
Aussen-T/F 1 13-10-2020 00:00:00 5.3 C 6.58 g/m*3 5.3 C 0 km/h
2 13-10-2020 01:00:00 5.075 C 6.52 g/m*3 5.08 C 0 km/h
3 13-10-2020 02:00:00 5.70833 C 6.84 g/m*3 5.71 C 0.13333 km/h
4 13-10-2020 03:00:00 6.2 C 7.06 g/m*3 6.2 C 0.4 km/h
5 13-10-2020 04:00:00 6.15833 C 7.04 g/m*3 6.16 C 0 km/h
6 13-10-2020 05:00:00 6.25833 C 7.09 g/m*3 6.26 C 0 km/h
7 13-10-2020 06:00:00 6.35 C 7.2 g/m*3 6.35 C 0 km/h
8 13-10-2020 07:00:00 6.325 C 7.19 g/m*3 6.33 C 0 km/h
9 13-10-2020 08:00:00 6.61667 C 7.33 g/m*3 6.62 C 0.13333 km/h
10 13-10-2020 09:00:00 7.05833 C 7.54 g/m*3 7.06 C 0.13333 km/h
11 13-10-2020 10:00:00 7.41667 C 7.65 g/m*3 6.7 C 5.35833 km/h
12 13-10-2020 11:00:00 8.08333 C 7.8 g/m*3 8.08 C 4.275 km/h
13 13-10-2020 12:00:00 9.225 C 8.09 g/m*3 9.23 C 4.00833 km/h
14 13-10-2020 13:00:00 10.16667 C 8.17 g/m*3 10.17 C 4.14167 km/h
15 13-10-2020 14:00:00 10.6 C 8.17 g/m*3 10.2 C 5.86667 km/h
16 13-10-2020 15:00:00 10.91667 C 8.12 g/m*3 10.92 C 3.88333 km/h
17 13-10-2020 16:00:00 10.59167 C 8.12 g/m*3 10.59 C 1.73333 km/h
18 13-10-2020 17:00:00 10.325 C 8.25 g/m*3 10.33 C 0.93333 km/h
19 13-10-2020 18:00:00 8.75 C 7.65 g/m*3 8.75 C 2.8 km/h
20 13-10-2020 19:00:00 7.19167 C 7.18 g/m*3 7.19 C 1.2 km/h
21 13-10-2020 20:00:00 6.40833 C 6.98 g/m*3 6.41 C 0.66667 km/h
22 13-10-2020 21:00:00 5.89167 C 6.8 g/m*3 5.89 C 1.73333 km/h
23 13-10-2020 22:00:00 5.36667 C 6.61 g/m*3 5.37 C 2.66667 km/h
24 13-10-2020 23:00:00 4.98333 C 6.45 g/m*3 4.98 C 0.13333 km/h
25 14-10-2020 00:00:00 5.275 C 6.64 g/m*3 5.28 C 0 km/h
Sensor: Nr:Datum:Temp:Abs-Feuchte:Windchill:Wind:
Aussen-T/F 26 14-10-2020 01:00:00 5.03333 C 6.53 g/m*3 5.03 C 0 km/h
27 14-10-2020 02:00:00 4.83333 C 6.45 g/m*3 4.83 C 0 km/h
28 14-10-2020 03:00:00 4.25 C 6.21 g/m*3 4.25 C 0 km/h
29 14-10-2020 04:00:00 3.675 C 5.97 g/m*3 3.68 C 0 km/h
30 14-10-2020 05:00:00 4.25 C 6.21 g/m*3 4.25 C 0 km/h
31 14-10-2020 06:00:00 4.56667 C 6.4 g/m*3 4.57 C 0 km/h
32 14-10-2020 07:00:00 4.8 C 6.5 g/m*3 4.8 C 0.13333 km/h
33 14-10-2020 08:00:00 4.95833 C 6.57 g/m*3 4.96 C 0 km/h
34 14-10-2020 09:00:00 5.925 C 7.01 g/m*3 5.93 C 0.13333 km/h
35 14-10-2020 10:00:00 7.06667 C 7.55 g/m*3 7.07 C 0.53333 km/h
36 14-10-2020 11:00:00 8.1 C 8.03 g/m*3 8.1 C 0.93333 km/h
37 14-10-2020 12:00:00 9.13333 C 8.22 g/m*3 9.13 C 4.14167 km/h
38 14-10-2020 13:00:00 10.51667 C 8.46 g/m*3 10.52 C 4.95 km/h
39 14-10-2020 14:00:00 11.51667 C 8.52 g/m*3 11.52 C 8.325 km/h
40 14-10-2020 15:00:00 11.80833 C 8.12 g/m*3 11.81 C 9.95833 km/h
41 14-10-2020 16:00:00 11.70833 C 7.58 g/m*3 11.71 C 10.225 km/h
42 14-10-2020 17:00:00 11.26667 C 7.79 g/m*3 11.27 C 8.875 km/h
43 14-10-2020 18:00:00 10.80833 C 7.7 g/m*3 9.74 C 9.14167 km/h
44 14-10-2020 19:00:00 10.35 C 7.75 g/m*3 10.35 C 4.675 km/h
45 14-10-2020 20:00:00 9.84167 C 7.65 g/m*3 8.78 C 8.2 km/h
46 14-10-2020 21:00:00 9.225 C 7.74 g/m*3 9.23 C 4.28333 km/h
47 14-10-2020 22:00:00 8.825 C 7.74 g/m*3 8.82 C 3.475 km/h
48 14-10-2020 23:00:00 8.40833 C 7.8 g/m*3 8.41 C 0.93333 km/h
49 15-10-2020 00:00:00 8.15833 C 7.83 g/m*3 8.16 C 0.8 km/h
50 15-10-2020 01:00:00 8.08333 C 7.86 g/m*3 8.08 C 1.2 km/h
Sensor: Nr:Datum:Temp:Abs-Feuchte:Windchill:Wind:
Aussen-T/F 51 15-10-2020 02:00:00 7.975 C 7.84 g/m*3 7.98 C 0.93333 km/h
52 15-10-2020 03:00:00 7.94167 C 7.84 g/m*3 7.94 C 1.2 km/h
53 15-10-2020 04:00:00 7.91667 C 7.89 g/m*3 7.92 C 0.93333 km/h
54 15-10-2020 05:00:00 7.9 C 7.89 g/m*3 7.9 C 0.93333 km/h
55 15-10-2020 06:00:00 7.81667 C 7.84 g/m*3 7.82 C 1.06667 km/h
56 15-10-2020 07:00:00 7.83333 C 7.85 g/m*3 7.83 C 0.8 km/h
57 15-10-2020 08:00:00 7.90833 C 7.89 g/m*3 7.91 C 0.53333 km/h
58 15-10-2020 09:00:00 8.15 C 8.03 g/m*3 8.15 C 0.26667 km/h
59 15-10-2020 10:00:00 8.4 C 8.21 g/m*3 8.4 C 0.26667 km/h
60 15-10-2020 11:00:00 8.7 C 8.32 g/m*3 8.7 C 1.33333 km/h
61 15-10-2020 12:00:00 9.24167 C 8.51 g/m*3 9.24 C 3.21667 km/h
62 15-10-2020 13:00:00 9.96667 C 8.52 g/m*3 9.01 C 7.79167 km/h
63 15-10-2020 14:00:00 10.375 C 8.48 g/m*3 9.25 C 9.03333 km/h
64 15-10-2020 15:00:00 10.61667 C 8.44 g/m*3 9.03 C 12.225 km/h
65 15-10-2020 16:00:00 10.7 C 8.42 g/m*3 9.71 C 8.61667 km/h
66 15-10-2020 17:00:00 10.71667 C 8.45 g/m*3 10 C 7.25 km/h
67 15-10-2020 18:00:00 10.625 C 8.45 g/m*3 10.63 C 4.14167 km/h
68 15-10-2020 19:00:00 10.075 C 8.51 g/m*3 10.07 C 0.93333 km/h
69 15-10-2020 20:00:00 9.93333 C 8.29 g/m*3 9.93 C 2.94167 km/h
70 15-10-2020 21:00:00 9.86667 C 8.27 g/m*3 9.87 C 2.13333 km/h
71 15-10-2020 22:00:00 9.78333 C 8.29 g/m*3 9.78 C 0.66667 km/h
72 15-10-2020 23:00:00 9.58333 C 8.36 g/m*3 9.58 C 0.13333 km/h
73 16-10-2020 00:00:00 9.34167 C 8.33 g/m*3 9.34 C 0.26667 km/h
74 16-10-2020 01:00:00 9.3 C 8.36 g/m*3 9.3 C 0.53333 km/h
75 16-10-2020 02:00:00 9.30833 C 8.32 g/m*3 9.31 C 0.53333 km/h
Sensor: Nr:Datum:Temp:Abs-Feuchte:Windchill:Wind:
Aussen-T/F 76 16-10-2020 03:00:00 9.325 C 8.22 g/m*3 9.32 C 1.86667 km/h
77 16-10-2020 04:00:00 9.24167 C 8.16 g/m*3 9.24 C 1.875 km/h
78 16-10-2020 05:00:00 8.925 C 8.12 g/m*3 8.93 C 0.4 km/h
79 16-10-2020 06:00:00 8.63333 C 8.03 g/m*3 8.63 C 1.2 km/h
80 16-10-2020 07:00:00 8.425 C 7.99 g/m*3 8.43 C 0.8 km/h
81 16-10-2020 08:00:00 8.4 C 7.97 g/m*3 8.4 C 0 km/h
82 16-10-2020 09:00:00 8.49167 C 8.07 g/m*3 8.49 C 1.46667 km/h
83 16-10-2020 10:00:00 8.86667 C 8.26 g/m*3 8.87 C 0.13333 km/h
84 16-10-2020 11:00:00 9.24167 C 8.41 g/m*3 9.24 C 0 km/h
85 16-10-2020 12:00:00 9.725 C 8.49 g/m*3 9.73 C 0.4 km/h
86 16-10-2020 13:00:00 10.24167 C 8.68 g/m*3 10.24 C 0.66667 km/h
87 16-10-2020 14:00:00 10.60833 C 8.69 g/m*3 10.61 C 3.75833 km/h
88 16-10-2020 15:00:00 11.04167 C 8.79 g/m*3 11.04 C 2.53333 km/h
89 16-10-2020 16:00:00 11 C 8.63 g/m*3 11 C 4.68333 km/h
90 16-10-2020 17:00:00 10.69167 C 8.7 g/m*3 10.69 C 3.86667 km/h
91 16-10-2020 18:00:00 10.06667 C 8.59 g/m*3 10.07 C 4.95 km/h
92 16-10-2020 19:00:00 9.275 C 8.37 g/m*3 9.28 C 1.73333 km/h
93 16-10-2020 20:00:00 8.81667 C 8.21 g/m*3 8.82 C 0.66667 km/h
94 16-10-2020 21:00:00 8.29167 C 8 g/m*3 8.29 C 4.8 km/h
95 16-10-2020 22:00:00 7.93333 C 7.84 g/m*3 7.93 C 3.06667 km/h
96 16-10-2020 23:00:00 7.05 C 7.39 g/m*3 7.05 C 3.6 km/h
97 17-10-2020 00:00:00 6.06667 C 6.93 g/m*3 6.07 C 2.53333 km/h
98 17-10-2020 01:00:00 5.34167 C 6.61 g/m*3 5.34 C 0.4 km/h
99 17-10-2020 02:00:00 4.51667 C 6.28 g/m*3 4.52 C 0 km/h
100 17-10-2020 03:00:00 4.18333 C 6.18 g/m*3 4.18 C 0 km/h
Sensor: Nr:Datum:Temp:Abs-Feuchte:Windchill:Wind:
Aussen-T/F 101 17-10-2020 04:00:00 3.575 C 5.93 g/m*3 3.58 C 0 km/h
102 17-10-2020 05:00:00 3.125 C 5.76 g/m*3 3.13 C 0 km/h
103 17-10-2020 06:00:00 3.23333 C 5.8 g/m*3 3.23 C 0 km/h
104 17-10-2020 07:00:00 3.34167 C 5.86 g/m*3 3.34 C 0 km/h
105 17-10-2020 08:00:00 3.80833 C 6.09 g/m*3 3.81 C 0.13333 km/h
106 17-10-2020 09:00:00 4.825 C 6.52 g/m*3 4.83 C 2.4 km/h
107 17-10-2020 10:00:00 5.68333 C 6.9 g/m*3 5.68 C 0.93333 km/h
108 17-10-2020 11:00:00 6.275 C 7.17 g/m*3 6.28 C 0 km/h
109 17-10-2020 12:00:00 7.025 C 7.53 g/m*3 7.03 C 0 km/h
110 17-10-2020 13:00:00 7.54167 C 7.74 g/m*3 7.54 C 0.4 km/h
111 17-10-2020 14:00:00 8.65833 C 7.99 g/m*3 8.66 C 0.13333 km/h
112 17-10-2020 15:00:00 9.66667 C 7.91 g/m*3 9.67 C 1.33333 km/h
113 17-10-2020 16:00:00 9.725 C 7.46 g/m*3 9.73 C 3.48333 km/h
114 17-10-2020 17:00:00 9.36667 C 7.57 g/m*3 9.37 C 0.53333 km/h
115 17-10-2020 18:00:00 8.68333 C 7.62 g/m*3 8.68 C 1.46667 km/h
116 17-10-2020 19:00:00 7.84167 C 7.41 g/m*3 7.84 C 1.86667 km/h
117 17-10-2020 20:00:00 7.39167 C 7.29 g/m*3 7.39 C 2.4 km/h
118 17-10-2020 21:00:00 6.61667 C 6.98 g/m*3 6.62 C 2 km/h
119 17-10-2020 22:00:00 6.30833 C 6.96 g/m*3 6.31 C 0 km/h
120 17-10-2020 23:00:00 5.90833 C 6.82 g/m*3 5.91 C 0 km/h
121 18-10-2020 00:00:00 5.975 C 6.88 g/m*3 5.98 C 0 km/h
122 18-10-2020 01:00:00 6.15 C 7.01 g/m*3 6.15 C 0.26667 km/h
123 18-10-2020 02:00:00 6.24167 C 7.08 g/m*3 6.24 C 1.86667 km/h
124 18-10-2020 03:00:00 6.31667 C 7.11 g/m*3 6.32 C 2.13333 km/h
125 18-10-2020 04:00:00 6.4 C 7.12 g/m*3 6.4 C 2 km/h
Sensor: Nr:Datum:Temp:Abs-Feuchte:Windchill:Wind:
Aussen-T/F 126 18-10-2020 05:00:00 6.29167 C 7.07 g/m*3 6.29 C 1.06667 km/h
127 18-10-2020 06:00:00 6.375 C 7.14 g/m*3 6.38 C 0.8 km/h
128 18-10-2020 07:00:00 6.43333 C 7.17 g/m*3 6.43 C 0.8 km/h
129 18-10-2020 08:00:00 6.48333 C 7.19 g/m*3 6.48 C 1.2 km/h
130 18-10-2020 09:00:00 6.93333 C 7.31 g/m*3 6.93 C 4.93333 km/h
131 18-10-2020 10:00:00 7.49167 C 7.43 g/m*3 6.62 C 5.88333 km/h
132 18-10-2020 11:00:00 7.95833 C 7.44 g/m*3 6.89 C 6.84167 km/h
133 18-10-2020 12:00:00 8.89167 C 7.73 g/m*3 8.01 C 6.71667 km/h
134 18-10-2020 13:00:00 10.125 C 8 g/m*3 9.28 C 7.39167 km/h
135 18-10-2020 14:00:00 10.475 C 7.94 g/m*3 9.58 C 7.925 km/h
136 18-10-2020 15:00:00 10.79167 C 8.01 g/m*3 10.31 C 6.29167 km/h
137 18-10-2020 16:00:00 10.79167 C 8.08 g/m*3 10.79 C 4.01667 km/h
138 18-10-2020 17:00:00 10.68333 C 8.15 g/m*3 10.68 C 2.55 km/h
139 18-10-2020 18:00:00 9.91667 C 8.04 g/m*3 9.92 C 2.93333 km/h
140 18-10-2020 19:00:00 9.28333 C 7.91 g/m*3 9.28 C 2 km/h
141 18-10-2020 20:00:00 9.20833 C 7.95 g/m*3 9.21 C 2.26667 km/h
142 18-10-2020 21:00:00 9.225 C 7.97 g/m*3 9.23 C 1.2 km/h
143 18-10-2020 22:00:00 9.05 C 8.01 g/m*3 9.05 C 1.06667 km/h
144 18-10-2020 23:00:00 9.05833 C 8 g/m*3 9.06 C 1.73333 km/h
145 19-10-2020 00:00:00 8.875 C 7.99 g/m*3 8.88 C 0.13333 km/h
146 19-10-2020 01:00:00 8.66667 C 7.96 g/m*3 8.67 C 0.93333 km/h
147 19-10-2020 02:00:00 8.65833 C 7.96 g/m*3 8.66 C 0.4 km/h
148 19-10-2020 03:00:00 8.34167 C 7.86 g/m*3 8.34 C 0.26667 km/h
149 19-10-2020 04:00:00 8.23333 C 7.89 g/m*3 8.23 C 0.93333 km/h
150 19-10-2020 05:00:00 8.18333 C 7.86 g/m*3 8.18 C 0.8 km/h
Sensor: Nr:Datum:Temp:Abs-Feuchte:Windchill:Wind:
Aussen-T/F 151 19-10-2020 06:00:00 7.70833 C 7.63 g/m*3 7.71 C 1.2 km/h
152 19-10-2020 07:00:00 7.40833 C 7.54 g/m*3 7.41 C 0 km/h
153 19-10-2020 08:00:00 7.45833 C 7.6 g/m*3 7.46 C 0 km/h
154 19-10-2020 09:00:00 8.09167 C 7.96 g/m*3 8.09 C 0 km/h
155 19-10-2020 10:00:00 7.83333 C 7.77 g/m*3 7.83 C 1.33333 km/h
156 19-10-2020 11:00:00 8.6 C 8.23 g/m*3 8.6 C 2.26667 km/h
157 19-10-2020 12:00:00 9.83333 C 8.86 g/m*3 9.83 C 0 km/h
158 19-10-2020 13:00:00 10.53333 C 9.14 g/m*3 10.53 C 1.33333 km/h
159 19-10-2020 14:00:00 11.93333 C 9.61 g/m*3 11.93 C 0 km/h
160 19-10-2020 15:00:00 12.95833 C 9.05 g/m*3 12.96 C 0.53333 km/h
161 19-10-2020 16:00:00 12.53333 C 9.06 g/m*3 12.53 C 3.6 km/h
162 19-10-2020 17:00:00 10.94167 C 8.24 g/m*3 10.55 C 6.00833 km/h
163 19-10-2020 18:00:00 8.60833 C 7.52 g/m*3 8.61 C 4.93333 km/h
164 19-10-2020 19:00:00 7.38333 C 7.2 g/m*3 6.72 C 5.2 km/h
165 19-10-2020 20:00:00 6.75 C 6.96 g/m*3 5.73 C 6.00833 km/h
166 19-10-2020 21:00:00 6.44167 C 6.87 g/m*3 5.69 C 5.06667 km/h
167 19-10-2020 22:00:00 5.76667 C 6.62 g/m*3 5.77 C 0.26667 km/h
168 19-10-2020 23:00:00 5.28333 C 6.49 g/m*3 5.28 C 1.46667 km/h
169 20-10-2020 00:00:00 5.20833 C 6.52 g/m*3 5.21 C 2.93333 km/h
170 20-10-2020 01:00:00 5.15833 C 6.48 g/m*3 5.16 C 3.06667 km/h
171 20-10-2020 02:00:00 5.14167 C 6.41 g/m*3 5.14 C 2.26667 km/h
172 20-10-2020 03:00:00 4.9 C 6.37 g/m*3 4.9 C 2.66667 km/h
173 20-10-2020 04:00:00 4.63333 C 6.29 g/m*3 4.63 C 2.93333 km/h
174 20-10-2020 05:00:00 4.98333 C 6.49 g/m*3 4.98 C 1.2 km/h
175 20-10-2020 06:00:00 5.6 C 6.78 g/m*3 5.6 C 0.87273 km/h
Sensor: Nr:Datum:Temp:Abs-Feuchte:Windchill:Wind:
Aussen-T/F 176 20-10-2020 07:00:00 5.825 C 6.87 g/m*3 5.83 C 0.4 km/h
177 20-10-2020 08:00:00 5.93333 C 6.89 g/m*3 5.93 C 0.53333 km/h
178 20-10-2020 09:00:00 6.66667 C 7.28 g/m*3 6.67 C 0.8 km/h
179 20-10-2020 10:00:00 8.1 C 7.93 g/m*3 8.1 C 0.93333 km/h
180 20-10-2020 11:00:00 9.83333 C 8.72 g/m*3 9.83 C 0.13333 km/h
181 20-10-2020 12:00:00 11.45 C 9.45 g/m*3 11.45 C 0 km/h
182 20-10-2020 13:00:00 11.775 C 9.65 g/m*3 11.78 C 0.4 km/h
183 20-10-2020 14:00:00 11.89167 C 9.74 g/m*3 11.89 C 0.4 km/h
184 20-10-2020 15:00:00 12.55833 C 10.03 g/m*3 12.56 C 0.13333 km/h
185 20-10-2020 16:00:00 12.44167 C 9.98 g/m*3 12.44 C 0.4 km/h
186 20-10-2020 17:00:00 12.075 C 9.84 g/m*3 12.08 C 0.8 km/h
187 20-10-2020 18:00:00 11.76667 C 9.74 g/m*3 11.77 C 0.93333 km/h
188 20-10-2020 19:00:00 11.7 C 9.81 g/m*3 11.7 C 2.66667 km/h
189 20-10-2020 20:00:00 11.9 C 9.92 g/m*3 11.9 C 2 km/h
190 20-10-2020 21:00:00 11.76667 C 9.74 g/m*3 11.77 C 1.33333 km/h
191 20-10-2020 22:00:00 11.6 C 9.67 g/m*3 11.6 C 1.86667 km/h
192 20-10-2020 23:00:00 11.78333 C 9.78 g/m*3 11.78 C 0.8 km/h
193 21-10-2020 00:00:00 11.84167 C 9.84 g/m*3 11.84 C 0 km/h
194 21-10-2020 01:00:00 11.69167 C 9.87 g/m*3 11.69 C 0 km/h
195 21-10-2020 02:00:00 11.40833 C 9.76 g/m*3 11.41 C 1.73333 km/h
196 21-10-2020 03:00:00 11.3 C 9.69 g/m*3 11.3 C 2.53333 km/h
197 21-10-2020 04:00:00 11.36667 C 9.72 g/m*3 11.37 C 2.66667 km/h
198 21-10-2020 05:00:00 11.79167 C 9.79 g/m*3 11.79 C 2.93333 km/h
199 21-10-2020 06:00:00 11.95833 C 9.85 g/m*3 11.96 C 3.6 km/h
200 21-10-2020 07:00:00 12.10833 C 9.88 g/m*3 12.11 C 2 km/h
Sensor: Nr:Datum:Temp:Abs-Feuchte:Windchill:Wind:
Aussen-T/F 201 21-10-2020 08:00:00 12.11667 C 10.06 g/m*3 12.12 C 1.86667 km/h
202 21-10-2020 09:00:00 12.125 C 10.15 g/m*3 12.13 C 0 km/h
203 21-10-2020 10:00:00 12.59167 C 10.45 g/m*3 12.59 C 0 km/h
204 21-10-2020 11:00:00 14.15833 C 10.68 g/m*3 14.16 C 0.93333 km/h
205 21-10-2020 12:00:00 16.85833 C 10.63 g/m*3 16.86 C 2.81667 km/h
206 21-10-2020 13:00:00 18.94167 C 9.78 g/m*3 18.94 C 5.08333 km/h
207 21-10-2020 14:00:00 19.85833 C 10.7 g/m*3 19.86 C 5.35833 km/h
208 21-10-2020 15:00:00 21.1 C 10.32 g/m*3 21.1 C 11.13333 km/h
209 21-10-2020 16:00:00 20.99167 C 10.41 g/m*3 20.99 C 9.54167 km/h
210 21-10-2020 17:00:00 20.175 C 10.97 g/m*3 20.18 C 5.21667 km/h
211 21-10-2020 18:00:00 18.21667 C 11.1 g/m*3 18.22 C 4.15 km/h
212 21-10-2020 19:00:00 16.75 C 10.88 g/m*3 16.75 C 4.95 km/h
213 21-10-2020 20:00:00 17.23333 C 11.31 g/m*3 17.23 C 5.89167 km/h
214 21-10-2020 21:00:00 16.08333 C 11.33 g/m*3 16.08 C 3.6 km/h
215 21-10-2020 22:00:00 15.63333 C 11.58 g/m*3 15.63 C 3.73333 km/h
216 21-10-2020 23:00:00 15.76667 C 11.55 g/m*3 15.77 C 2.8 km/h
217 22-10-2020 00:00:00 15.55 C 11.52 g/m*3 15.55 C 0.4 km/h
218 22-10-2020 01:00:00 14.975 C 11.41 g/m*3 14.98 C 0.4 km/h
219 22-10-2020 02:00:00 14.6 C 11.32 g/m*3 14.6 C 0 km/h
220 22-10-2020 03:00:00 14.275 C 11.3 g/m*3 14.28 C 0.13333 km/h
221 22-10-2020 04:00:00 14.3 C 11.43 g/m*3 14.3 C 1.73333 km/h
222 22-10-2020 05:00:00 14.33333 C 11.44 g/m*3 14.33 C 0.93333 km/h
223 22-10-2020 06:00:00 14.30833 C 11.35 g/m*3 14.31 C 1.46667 km/h
224 22-10-2020 07:00:00 14.14167 C 11.32 g/m*3 14.14 C 0.4 km/h
225 22-10-2020 08:00:00 13.95833 C 11.17 g/m*3 13.96 C 0.66667 km/h
Sensor: Nr:Datum:Temp:Abs-Feuchte:Windchill:Wind:
Aussen-T/F 226 22-10-2020 09:00:00 14.85833 C 11.71 g/m*3 14.86 C 0.66667 km/h
227 22-10-2020 10:00:00 15.275 C 11.84 g/m*3 15.28 C 0.93333 km/h
228 22-10-2020 11:00:00 16.60833 C 11.93 g/m*3 16.61 C 7.24167 km/h
229 22-10-2020 12:00:00 17.36667 C 11.93 g/m*3 17.37 C 6.31667 km/h
230 22-10-2020 13:00:00 18.7 C 11.94 g/m*3 18.7 C 9.25833 km/h
231 22-10-2020 14:00:00 19.69167 C 12.01 g/m*3 19.69 C 10.74167 km/h
232 22-10-2020 15:00:00 20.15 C 12.22 g/m*3 20.15 C 10.225 km/h
233 22-10-2020 16:00:00 20.34167 C 12.64 g/m*3 20.34 C 6.3 km/h
234 22-10-2020 17:00:00 19.05833 C 12.85 g/m*3 19.06 C 4.13333 km/h
235 22-10-2020 18:00:00 17.45833 C 12.42 g/m*3 17.46 C 4.53333 km/h
236 22-10-2020 19:00:00 16.05833 C 11.96 g/m*3 16.06 C 4.26667 km/h
237 22-10-2020 20:00:00 15.66667 C 11.84 g/m*3 15.67 C 4.26667 km/h
238 22-10-2020 21:00:00 15.60833 C 11.85 g/m*3 15.61 C 1.33333 km/h
239 22-10-2020 22:00:00 15.6 C 11.97 g/m*3 15.6 C 1.2 km/h
240 22-10-2020 23:00:00 15.6 C 12.04 g/m*3 15.6 C 0 km/h
241 23-10-2020 00:00:00 15.38333 C 11.95 g/m*3 15.38 C 0 km/h
242 23-10-2020 01:00:00 15.35833 C 11.98 g/m*3 15.36 C 0.13333 km/h
243 23-10-2020 02:00:00 15.525 C 12.03 g/m*3 15.53 C 0.26667 km/h
244 23-10-2020 03:00:00 15.6 C 12.1 g/m*3 15.6 C 0.53333 km/h
245 23-10-2020 04:00:00 15.80833 C 12.03 g/m*3 15.81 C 2.26667 km/h
246 23-10-2020 05:00:00 16.05833 C 12.03 g/m*3 16.06 C 2.00833 km/h
247 23-10-2020 06:00:00 15.78333 C 11.89 g/m*3 15.78 C 0.66667 km/h
248 23-10-2020 07:00:00 15.11667 C 11.84 g/m*3 15.12 C 0.8 km/h
249 23-10-2020 08:00:00 14.76667 C 11.84 g/m*3 14.77 C 0 km/h
250 23-10-2020 09:00:00 14.65 C 11.89 g/m*3 14.65 C 0 km/h
Sensor: Nr:Datum:Temp:Abs-Feuchte:Windchill:Wind:
Aussen-T/F 251 23-10-2020 10:00:00 14.75833 C 12.02 g/m*3 14.76 C 0 km/h
252 23-10-2020 11:00:00 15.25833 C 12.5 g/m*3 15.26 C 0 km/h
253 23-10-2020 12:00:00 15.49167 C 12.67 g/m*3 15.49 C 0.66667 km/h
254 23-10-2020 13:00:00 15.85 C 12.85 g/m*3 15.85 C 1.06667 km/h
255 23-10-2020 14:00:00 16.23333 C 12.99 g/m*3 16.23 C 1.46667 km/h
256 23-10-2020 15:00:00 16.58333 C 12.81 g/m*3 16.58 C 3.06667 km/h
257 23-10-2020 16:00:00 16.55833 C 12.67 g/m*3 16.56 C 2.14167 km/h
258 23-10-2020 17:00:00 15.79167 C 12.36 g/m*3 15.79 C 2.80833 km/h
259 23-10-2020 18:00:00 15.09167 C 11.96 g/m*3 15.09 C 3.06667 km/h
260 23-10-2020 19:00:00 14.19167 C 11.35 g/m*3 14.19 C 4.40833 km/h
261 23-10-2020 20:00:00 13.38333 C 10.92 g/m*3 13.38 C 2.13333 km/h
262 23-10-2020 21:00:00 12.83333 C 10.66 g/m*3 12.83 C 3.08333 km/h
263 23-10-2020 22:00:00 13.175 C 10.96 g/m*3 13.18 C 3.21667 km/h
264 23-10-2020 23:00:00 12.40833 C 10.44 g/m*3 12.41 C 3.89167 km/h
265 24-10-2020 00:00:00 12.76667 C 10.7 g/m*3 12.77 C 8.06667 km/h
266 24-10-2020 01:00:00 12.65833 C 10.52 g/m*3 12.66 C 6.96667 km/h
267 24-10-2020 02:00:00 12.375 C 10.25 g/m*3 12.38 C 1.6 km/h
268 24-10-2020 03:00:00 11.5 C 9.78 g/m*3 11.5 C 0.53333 km/h
269 24-10-2020 04:00:00 11.04167 C 9.59 g/m*3 11.04 C 0 km/h
270 24-10-2020 05:00:00 11.03333 C 9.63 g/m*3 11.03 C 1.06667 km/h
271 24-10-2020 06:00:00 11.14167 C 9.7 g/m*3 11.14 C 1.33333 km/h
272 24-10-2020 07:00:00 11.65833 C 10.12 g/m*3 11.66 C 2.28333 km/h
273 24-10-2020 08:00:00 11.96667 C 10.2 g/m*3 11.97 C 9 km/h
274 24-10-2020 09:00:00 13 C 10.14 g/m*3 13 C 18.64167 km/h
275 24-10-2020 10:00:00 13.44167 C 9.98 g/m*3 13.44 C 14.9 km/h
Sensor: Nr:Datum:Temp:Abs-Feuchte:Windchill:Wind:
Aussen-T/F 276 24-10-2020 11:00:00 13.36667 C 9.08 g/m*3 13.37 C 18.23333 km/h
277 24-10-2020 12:00:00 14.45 C 9.54 g/m*3 14.45 C 10.075 km/h
278 24-10-2020 13:00:00 15.28333 C 9.87 g/m*3 15.28 C 7.925 km/h
279 24-10-2020 14:00:00 15.28333 C 10.03 g/m*3 15.28 C 7.23333 km/h
280 24-10-2020 15:00:00 15.45833 C 10.15 g/m*3 15.46 C 6.56667 km/h
281 24-10-2020 16:00:00 15.275 C 10.26 g/m*3 15.28 C 4.14167 km/h
282 24-10-2020 17:00:00 15.025 C 10.32 g/m*3 15.03 C 2.94167 km/h
283 24-10-2020 18:00:00 14.575 C 10.27 g/m*3 14.58 C 3.06667 km/h
284 24-10-2020 19:00:00 14.26667 C 10.31 g/m*3 14.27 C 3.20833 km/h
285 24-10-2020 20:00:00 14.26667 C 10.36 g/m*3 14.27 C 5.08333 km/h
286 24-10-2020 21:00:00 14.10833 C 10.43 g/m*3 14.11 C 3.06667 km/h
287 24-10-2020 22:00:00 13.94167 C 10.43 g/m*3 13.94 C 3.75 km/h
288 24-10-2020 23:00:00 13.90833 C 10.4 g/m*3 13.91 C 3.88333 km/h
289 25-10-2020 00:00:00 14.18333 C 10.4 g/m*3 14.18 C 4.54167 km/h
290 25-10-2020 01:00:00 14.3 C 10.34 g/m*3 14.3 C 2.53333 km/h
291 25-10-2020 02:00:00 14.43333 C 10.17 g/m*3 14.43 C 4.15 km/h
292 25-10-2020 04:00:00 13.42174 C 9.68 g/m*3 13.42 C 4.19565 km/h
293 25-10-2020 05:00:00 12.83077 C 9.47 g/m*3 12.83 C 2.09231 km/h
294 25-10-2020 06:00:00 11.9 C 9.24 g/m*3 11.9 C 0.66667 km/h
295 25-10-2020 07:00:00 11.76667 C 9.29 g/m*3 11.77 C 2.80833 km/h
296 25-10-2020 08:00:00 13.05 C 9.43 g/m*3 13.05 C 2.66667 km/h
297 25-10-2020 09:00:00 13.775 C 9.61 g/m*3 13.78 C 2.66667 km/h
298 25-10-2020 10:00:00 14.6 C 9.69 g/m*3 14.6 C 4.13333 km/h
299 25-10-2020 11:00:00 15.275 C 9.84 g/m*3 15.28 C 4.14167 km/h
300 25-10-2020 12:00:00 15.55833 C 10.1 g/m*3 15.56 C 3.06667 km/h
Sensor: Nr:Datum:Temp:Abs-Feuchte:Windchill:Wind:
Aussen-T/F 301 25-10-2020 13:00:00 15.95 C 10.32 g/m*3 15.95 C 5.49167 km/h
302 25-10-2020 14:00:00 15.7 C 10.63 g/m*3 15.7 C 3.48333 km/h
303 25-10-2020 15:00:00 14.025 C 10.84 g/m*3 14.03 C 0.4 km/h
304 25-10-2020 16:00:00 13.275 C 10.67 g/m*3 13.28 C 1.2 km/h
305 25-10-2020 17:00:00 12.40833 C 10.21 g/m*3 12.41 C 2.8 km/h
306 25-10-2020 18:00:00 11.725 C 9.85 g/m*3 11.73 C 3.075 km/h
307 25-10-2020 19:00:00 11.30833 C 9.59 g/m*3 11.31 C 3.35833 km/h
308 25-10-2020 20:00:00 11.03333 C 9.5 g/m*3 11.03 C 2.66667 km/h
309 25-10-2020 21:00:00 10.76667 C 9.37 g/m*3 10.77 C 0.93333 km/h
310 25-10-2020 22:00:00 10.61667 C 9.32 g/m*3 10.62 C 0.53333 km/h
311 25-10-2020 23:00:00 10.675 C 9.41 g/m*3 10.68 C 0.4 km/h
312 26-10-2020 00:00:00 10.7 C 9.43 g/m*3 10.7 C 1.2 km/h
313 26-10-2020 01:00:00 10.66667 C 9.41 g/m*3 10.67 C 0.26667 km/h
314 26-10-2020 02:00:00 10.65833 C 9.34 g/m*3 10.66 C 1.33333 km/h
315 26-10-2020 03:00:00 10.65833 C 9.31 g/m*3 10.66 C 0.8 km/h
316 26-10-2020 04:00:00 10.63333 C 9.35 g/m*3 10.63 C 0.26667 km/h
317 26-10-2020 05:00:00 10.675 C 9.41 g/m*3 10.68 C 0.53333 km/h
318 26-10-2020 06:00:00 10.41667 C 9.26 g/m*3 10.42 C 0.93333 km/h
319 26-10-2020 07:00:00 9.99167 C 9.02 g/m*3 9.99 C 4.55 km/h
320 26-10-2020 08:00:00 9.8 C 8.89 g/m*3 9.8 C 4.40833 km/h
321 26-10-2020 09:00:00 10.01667 C 8.82 g/m*3 10.02 C 4.29167 km/h
322 26-10-2020 10:00:00 10.86667 C 8.76 g/m*3 10.15 C 7.39167 km/h
323 26-10-2020 11:00:00 11.60833 C 8.7 g/m*3 11.61 C 6.98333 km/h
324 26-10-2020 12:00:00 11.76667 C 8.42 g/m*3 11.77 C 9.94167 km/h
325 26-10-2020 13:00:00 12.00833 C 8.16 g/m*3 12.01 C 9.28333 km/h
Sensor: Nr:Datum:Temp:Abs-Feuchte:Windchill:Wind:
Aussen-T/F 326 26-10-2020 14:00:00 12.18333 C 7.96 g/m*3 12.18 C 7.4 km/h
327 26-10-2020 15:00:00 12.23333 C 7.89 g/m*3 12.23 C 5.625 km/h
328 26-10-2020 16:00:00 12.05 C 8.09 g/m*3 12.05 C 3.875 km/h
329 26-10-2020 17:00:00 10.44167 C 7.9 g/m*3 10.44 C 2.4 km/h
330 26-10-2020 18:00:00 8.625 C 7.45 g/m*3 8.63 C 4.13333 km/h
331 26-10-2020 19:00:00 7.68333 C 7.29 g/m*3 7.68 C 2.26667 km/h
332 26-10-2020 20:00:00 7.625 C 7.33 g/m*3 7.63 C 2 km/h
333 26-10-2020 21:00:00 8.125 C 7.4 g/m*3 8.13 C 3.075 km/h
334 26-10-2020 22:00:00 7.775 C 7.35 g/m*3 7.78 C 2 km/h
335 26-10-2020 23:00:00 7.66667 C 7.38 g/m*3 7.67 C 2.54167 km/h
336 27-10-2020 00:00:00 7.83333 C 7.48 g/m*3 7.83 C 4.01667 km/h
337 27-10-2020 01:00:00 8.39167 C 7.73 g/m*3 8.39 C 2.40833 km/h
338 27-10-2020 02:00:00 9.33333 C 7.87 g/m*3 9.33 C 3.46667 km/h
339 27-10-2020 03:00:00 8.90833 C 7.8 g/m*3 8.91 C 3.475 km/h
340 27-10-2020 04:00:00 8.84167 C 7.85 g/m*3 8.84 C 2.4 km/h
341 27-10-2020 05:00:00 8.64167 C 7.83 g/m*3 8.64 C 2.4 km/h
342 27-10-2020 06:00:00 7.81667 C 7.51 g/m*3 7.82 C 2.13333 km/h
343 27-10-2020 07:00:00 7.75 C 7.61 g/m*3 7.75 C 1.06667 km/h
344 27-10-2020 08:00:00 9.04167 C 8.2 g/m*3 9.04 C 1.6 km/h
345 27-10-2020 09:00:00 10.38333 C 8.42 g/m*3 10.38 C 2.26667 km/h
346 27-10-2020 10:00:00 11.39167 C 8.56 g/m*3 11.39 C 9.00833 km/h
347 27-10-2020 11:00:00 11.89167 C 8.49 g/m*3 11.89 C 11.675 km/h
348 27-10-2020 12:00:00 12.25 C 8.36 g/m*3 12.25 C 13.15833 km/h
349 27-10-2020 13:00:00 12.625 C 8.29 g/m*3 12.63 C 11.7 km/h
350 27-10-2020 14:00:00 12.85833 C 8.16 g/m*3 12.86 C 9.675 km/h
Sensor: Nr:Datum:Temp:Abs-Feuchte:Windchill:Wind:
Aussen-T/F 351 27-10-2020 15:00:00 12.675 C 7.85 g/m*3 12.68 C 9.15 km/h
352 27-10-2020 16:00:00 12.21667 C 7.85 g/m*3 12.22 C 5.49167 km/h
353 27-10-2020 17:00:00 11.21667 C 7.86 g/m*3 11.22 C 1.6 km/h
354 27-10-2020 18:00:00 10.66667 C 7.78 g/m*3 10.67 C 2.675 km/h
355 27-10-2020 19:00:00 11.25833 C 7.78 g/m*3 11.26 C 5.625 km/h
356 27-10-2020 20:00:00 11.3 C 7.91 g/m*3 11.3 C 5.36667 km/h
357 27-10-2020 21:00:00 11.05 C 8.07 g/m*3 11.05 C 2.4 km/h
358 27-10-2020 22:00:00 11.05833 C 8.23 g/m*3 11.06 C 1.46667 km/h
359 27-10-2020 23:00:00 11.28333 C 8.48 g/m*3 11.28 C 1.6 km/h
360 28-10-2020 00:00:00 11.61667 C 8.74 g/m*3 11.62 C 3.06667 km/h
361 28-10-2020 01:00:00 11.7 C 8.91 g/m*3 11.7 C 2.66667 km/h
362 28-10-2020 02:00:00 11.81667 C 9.11 g/m*3 11.82 C 2.4 km/h
363 28-10-2020 03:00:00 11.84167 C 9.34 g/m*3 11.84 C 0.53333 km/h
364 28-10-2020 04:00:00 11.75833 C 9.5 g/m*3 11.76 C 0.53333 km/h
365 28-10-2020 05:00:00 11.7 C 9.71 g/m*3 11.7 C 0 km/h
366 28-10-2020 06:00:00 11.51667 C 9.72 g/m*3 11.52 C 0.8 km/h
367 28-10-2020 07:00:00 11.26667 C 9.63 g/m*3 11.27 C 1.33333 km/h
368 28-10-2020 08:00:00 11.51667 C 9.87 g/m*3 11.52 C 0.26667 km/h
369 28-10-2020 09:00:00 12.30833 C 10.39 g/m*3 12.31 C 0.26667 km/h
370 28-10-2020 10:00:00 12.64167 C 10.47 g/m*3 12.64 C 2.8 km/h
371 28-10-2020 11:00:00 13.325 C 10.63 g/m*3 13.33 C 8.18333 km/h
372 28-10-2020 12:00:00 14.25833 C 10.08 g/m*3 14.26 C 12.76667 km/h
373 28-10-2020 13:00:00 14.11667 C 8.96 g/m*3 14.12 C 17.03333 km/h
374 28-10-2020 14:00:00 13.99167 C 8.57 g/m*3 13.99 C 16.76667 km/h
375 28-10-2020 15:00:00 13.50833 C 8.34 g/m*3 13.51 C 11.41667 km/h
Sensor: Nr:Datum:Temp:Abs-Feuchte:Windchill:Wind:
Aussen-T/F 376 28-10-2020 16:00:00 13.43333 C 8.48 g/m*3 13.43 C 11.55 km/h
377 28-10-2020 17:00:00 12.94167 C 8.48 g/m*3 12.94 C 6.56667 km/h
378 28-10-2020 18:00:00 12.61667 C 8.44 g/m*3 12.62 C 5.61667 km/h
379 28-10-2020 19:00:00 12.65 C 8.42 g/m*3 12.65 C 7.10833 km/h
380 28-10-2020 20:00:00 13.08333 C 8.54 g/m*3 13.08 C 10.60833 km/h
381 28-10-2020 21:00:00 12.94167 C 8.7 g/m*3 12.94 C 8.05833 km/h
382 28-10-2020 22:00:00 12.825 C 8.91 g/m*3 12.83 C 8.70833 km/h
383 28-10-2020 23:00:00 12.99167 C 9.11 g/m*3 12.99 C 17.44167 km/h
384 29-10-2020 00:00:00 12.46667 C 9.24 g/m*3 12.47 C 15.03333 km/h
385 29-10-2020 01:00:00 10.63333 C 8.8 g/m*3 8.92 C 13.15 km/h
386 29-10-2020 02:00:00 9.80833 C 8.58 g/m*3 9.07 C 6.71667 km/h
387 29-10-2020 03:00:00 10.175 C 8.84 g/m*3 8.97 C 9.275 km/h
388 29-10-2020 04:00:00 10.05833 C 8.72 g/m*3 8.9 C 8.86667 km/h
389 29-10-2020 05:00:00 9.88333 C 8.57 g/m*3 8.5 C 9.94167 km/h
390 29-10-2020 06:00:00 9.95833 C 8.4 g/m*3 8.61 C 9.80833 km/h
391 29-10-2020 07:00:00 9.24167 C 7.92 g/m*3 8.48 C 6.43333 km/h
392 29-10-2020 08:00:00 9.05833 C 7.89 g/m*3 8.04 C 7.375 km/h
393 29-10-2020 09:00:00 9.75833 C 8.11 g/m*3 9.15 C 6.16667 km/h
394 29-10-2020 10:00:00 11.16667 C 8.62 g/m*3 11.17 C 6.175 km/h
395 29-10-2020 11:00:00 11.58333 C 8.77 g/m*3 11.58 C 6.96667 km/h
396 29-10-2020 12:00:00 10.7 C 8.87 g/m*3 10.27 C 6.01667 km/h
397 29-10-2020 13:00:00 10.94167 C 9.31 g/m*3 10.94 C 3.475 km/h
398 29-10-2020 14:00:00 11.61667 C 9.76 g/m*3 11.62 C 5.61667 km/h
399 29-10-2020 15:00:00 11.33333 C 9.64 g/m*3 11.33 C 4.94167 km/h
400 29-10-2020 16:00:00 11.15 C 9.57 g/m*3 11.15 C 6.575 km/h
Sensor: Nr:Datum:Temp:Abs-Feuchte:Windchill:Wind:
Aussen-T/F 401 29-10-2020 17:00:00 10.76667 C 9.37 g/m*3 10.77 C 4.55 km/h
402 29-10-2020 18:00:00 10.59167 C 9.27 g/m*3 10.59 C 0.66667 km/h
403 29-10-2020 19:00:00 10.475 C 9.29 g/m*3 10.48 C 0.13333 km/h
404 29-10-2020 20:00:00 10.64167 C 9.39 g/m*3 10.64 C 4.7 km/h
405 29-10-2020 21:00:00 10.88333 C 9.54 g/m*3 10.32 C 6.70833 km/h
406 29-10-2020 22:00:00 11.225 C 9.75 g/m*3 11.23 C 7.10833 km/h
407 29-10-2020 23:00:00 11.56667 C 9.96 g/m*3 11.57 C 5.90833 km/h
408 30-10-2020 00:00:00 11.89167 C 10.16 g/m*3 11.89 C 4.81667 km/h
409 30-10-2020 01:00:00 12.16667 C 10.34 g/m*3 12.17 C 5.35 km/h
410 30-10-2020 02:00:00 12.39167 C 10.5 g/m*3 12.39 C 5.63333 km/h
411 30-10-2020 03:00:00 12.75 C 10.68 g/m*3 12.75 C 7.375 km/h
412 30-10-2020 04:00:00 12.74167 C 10.63 g/m*3 12.74 C 3.48333 km/h
413 30-10-2020 05:00:00 12.68333 C 10.65 g/m*3 12.68 C 4.14167 km/h
414 30-10-2020 06:00:00 12.9 C 10.71 g/m*3 12.9 C 3.74167 km/h
415 30-10-2020 07:00:00 13.10833 C 10.67 g/m*3 13.11 C 7.11667 km/h
416 30-10-2020 08:00:00 13.3 C 10.71 g/m*3 13.3 C 4.83333 km/h
417 30-10-2020 09:00:00 13.79167 C 10.86 g/m*3 13.79 C 9.01667 km/h
418 30-10-2020 10:00:00 14.525 C 11.09 g/m*3 14.53 C 13.03333 km/h
419 30-10-2020 11:00:00 15.03333 C 11.21 g/m*3 15.03 C 16.23333 km/h
420 30-10-2020 12:00:00 15.14167 C 11.25 g/m*3 15.14 C 13.3 km/h
421 30-10-2020 13:00:00 15.33333 C 11.34 g/m*3 15.33 C 13.03333 km/h
422 30-10-2020 14:00:00 15.30833 C 11.28 g/m*3 15.31 C 6.43333 km/h
423 30-10-2020 15:00:00 15.35833 C 11.15 g/m*3 15.36 C 9 km/h
424 30-10-2020 16:00:00 14.94167 C 11.04 g/m*3 14.94 C 8.05833 km/h
425 30-10-2020 17:00:00 14.29167 C 11.01 g/m*3 14.29 C 5.21667 km/h
Sensor: Nr:Datum:Temp:Abs-Feuchte:Windchill:Wind:
Aussen-T/F 426 30-10-2020 18:00:00 13.98333 C 10.97 g/m*3 13.98 C 2 km/h
427 30-10-2020 19:00:00 14.05833 C 10.83 g/m*3 14.06 C 5.76667 km/h
428 30-10-2020 20:00:00 14.26667 C 10.72 g/m*3 14.27 C 10.625 km/h
429 30-10-2020 21:00:00 14.175 C 10.65 g/m*3 14.18 C 9.95833 km/h
430 30-10-2020 22:00:00 13.76667 C 10.42 g/m*3 13.77 C 9.68333 km/h
431 30-10-2020 23:00:00 13.69167 C 10.34 g/m*3 13.69 C 10.21667 km/h
432 31-10-2020 00:00:00 13.70833 C 10.2 g/m*3 13.71 C 9.69167 km/h
433 31-10-2020 01:00:00 13.625 C 10.22 g/m*3 13.63 C 6.69167 km/h
434 31-10-2020 02:00:00 13.58333 C 10.17 g/m*3 13.58 C 6.03333 km/h
435 31-10-2020 03:00:00 13.43333 C 10.13 g/m*3 13.43 C 1.6 km/h
436 31-10-2020 04:00:00 12.75833 C 10.03 g/m*3 12.76 C 0.13333 km/h
437 31-10-2020 05:00:00 12.375 C 9.95 g/m*3 12.38 C 0 km/h
438 31-10-2020 06:00:00 12.15833 C 9.9 g/m*3 12.16 C 0 km/h
439 31-10-2020 07:00:00 12.04167 C 9.88 g/m*3 12.04 C 0 km/h
440 31-10-2020 08:00:00 12.31667 C 10.08 g/m*3 12.32 C 0.4 km/h
441 31-10-2020 09:00:00 13.25833 C 9.79 g/m*3 13.26 C 3.075 km/h
442 31-10-2020 10:00:00 13.79167 C 9.48 g/m*3 13.79 C 4.69167 km/h
443 31-10-2020 11:00:00 13.66667 C 9.66 g/m*3 13.67 C 3.60833 km/h
444 31-10-2020 12:00:00 14.28333 C 9.8 g/m*3 14.28 C 5.61667 km/h
445 31-10-2020 13:00:00 15.39167 C 10.01 g/m*3 15.39 C 4.68333 km/h
446 31-10-2020 14:00:00 15.73333 C 10.32 g/m*3 15.73 C 4.54167 km/h
447 31-10-2020 15:00:00 14.64167 C 10.29 g/m*3 14.64 C 4.675 km/h
448 31-10-2020 16:00:00 13.46667 C 10.08 g/m*3 13.47 C 4.40833 km/h
449 31-10-2020 17:00:00 12.26667 C 9.59 g/m*3 12.27 C 4.93333 km/h
450 31-10-2020 18:00:00 11.28333 C 9.3 g/m*3 11.28 C 4.26667 km/h
Sensor: Nr:Datum:Temp:Abs-Feuchte:Windchill:Wind:
Aussen-T/F 451 31-10-2020 19:00:00 11.4 C 9.44 g/m*3 11.4 C 3.2 km/h
452 31-10-2020 20:00:00 11.98333 C 9.71 g/m*3 11.98 C 1.6 km/h
453 31-10-2020 21:00:00 12.51667 C 9.96 g/m*3 12.52 C 1.2 km/h
454 31-10-2020 22:00:00 12.7 C 10.34 g/m*3 12.7 C 1.73333 km/h
455 31-10-2020 23:00:00 13.05833 C 10.72 g/m*3 13.06 C 6.025 km/h
456 01-11-2020 00:00:00 13.1 C 10.84 g/m*3 13.1 C 2.26667 km/h
457 01-11-2020 01:00:00 13.13333 C 10.91 g/m*3 13.13 C 0.93333 km/h
458 01-11-2020 02:00:00 13.175 C 11.01 g/m*3 13.18 C 1.2 km/h
459 01-11-2020 03:00:00 13.1 C 10.95 g/m*3 13.1 C 0 km/h
460 01-11-2020 04:00:00 13.04167 C 10.92 g/m*3 13.04 C 0 km/h
461 01-11-2020 05:00:00 12.76667 C 10.73 g/m*3 12.77 C 0 km/h
462 01-11-2020 06:00:00 12.51667 C 10.61 g/m*3 12.52 C 0 km/h
463 01-11-2020 07:00:00 12.55 C 10.69 g/m*3 12.55 C 0 km/h
464 01-11-2020 08:00:00 13.10833 C 11.07 g/m*3 13.11 C 0 km/h
465 01-11-2020 09:00:00 13.875 C 11.62 g/m*3 13.88 C 2.275 km/h
466 01-11-2020 10:00:00 15.05 C 12.19 g/m*3 15.05 C 10.75833 km/h
467 01-11-2020 11:00:00 16.35 C 12.38 g/m*3 16.35 C 4.55833 km/h
468 01-11-2020 12:00:00 16.775 C 12.44 g/m*3 16.77 C 3.48333 km/h
469 01-11-2020 13:00:00 16.94167 C 12.6 g/m*3 16.94 C 8.6 km/h
470 01-11-2020 14:00:00 16.83333 C 12.68 g/m*3 16.83 C 12.23333 km/h
471 01-11-2020 15:00:00 16.71667 C 12.48 g/m*3 16.72 C 16.76667 km/h
472 01-11-2020 16:00:00 16.74167 C 12.48 g/m*3 16.74 C 14.36667 km/h
473 01-11-2020 17:00:00 16.6 C 12.51 g/m*3 16.6 C 10.49167 km/h
474 01-11-2020 18:00:00 16.71667 C 12.6 g/m*3 16.72 C 9.00833 km/h
475 01-11-2020 19:00:00 16.86667 C 12.63 g/m*3 16.87 C 11.025 km/h
Sensor: Nr:Datum:Temp:Abs-Feuchte:Windchill:Wind:
Aussen-T/F 476 01-11-2020 20:00:00 16.975 C 12.71 g/m*3 16.98 C 12.48333 km/h
477 01-11-2020 21:00:00 17.125 C 12.77 g/m*3 17.13 C 12.89167 km/h
478 01-11-2020 22:00:00 17.175 C 12.86 g/m*3 17.18 C 8.06667 km/h
479 01-11-2020 23:00:00 17.25833 C 12.93 g/m*3 17.26 C 4.68333 km/h
480 02-11-2020 00:00:00 17.56667 C 13.16 g/m*3 17.57 C 7.65833 km/h
481 02-11-2020 01:00:00 17.90833 C 13.35 g/m*3 17.91 C 13.15833 km/h
482 02-11-2020 02:00:00 18.19167 C 13.45 g/m*3 18.19 C 14.76667 km/h
483 02-11-2020 03:00:00 18.575 C 13.36 g/m*3 18.58 C 13.16667 km/h
484 02-11-2020 04:00:00 18.7 C 13.42 g/m*3 18.7 C 9.95 km/h
485 02-11-2020 05:00:00 18.38333 C 13.6 g/m*3 18.38 C 10.89167 km/h
486 02-11-2020 06:00:00 18.60833 C 13.46 g/m*3 18.61 C 14.23333 km/h
487 02-11-2020 07:00:00 19.01667 C 13.25 g/m*3 19.02 C 18.90833 km/h
488 02-11-2020 08:00:00 19.21667 C 13.14 g/m*3 19.22 C 20.24167 km/h
489 02-11-2020 09:00:00 19.46667 C 13.05 g/m*3 19.47 C 21.04167 km/h
490 02-11-2020 10:00:00 19.35 C 13.06 g/m*3 19.35 C 14.5 km/h
491 02-11-2020 11:00:00 19.59167 C 13.02 g/m*3 19.59 C 11.83333 km/h
492 02-11-2020 12:00:00 20.23333 C 13.05 g/m*3 20.23 C 13.7 km/h
493 02-11-2020 13:00:00 20.46667 C 12.93 g/m*3 20.47 C 14.9 km/h
494 02-11-2020 14:00:00 20.7 C 12.89 g/m*3 20.7 C 15.96667 km/h
495 02-11-2020 15:00:00 20.93333 C 12.86 g/m*3 20.93 C 15.96667 km/h
496 02-11-2020 16:00:00 20.69167 C 12.7 g/m*3 20.69 C 17.43333 km/h
497 02-11-2020 17:00:00 19.75 C 12.69 g/m*3 19.75 C 12.48333 km/h
498 02-11-2020 18:00:00 19.625 C 12.82 g/m*3 19.63 C 12.35 km/h
499 02-11-2020 19:00:00 19.70833 C 12.91 g/m*3 19.71 C 16.91667 km/h
500 02-11-2020 20:00:00 18.83333 C 12.8 g/m*3 18.83 C 13.55833 km/h
Sensor: Nr:Datum:Temp:Abs-Feuchte:Windchill:Wind:
Aussen-T/F 501 02-11-2020 21:00:00 14.275 C 11.17 g/m*3 14.28 C 4.56667 km/h
502 02-11-2020 22:00:00 13.01667 C 10.49 g/m*3 13.02 C 5.9 km/h
503 02-11-2020 23:00:00 11.94167 C 9.89 g/m*3 11.94 C 4.80833 km/h
504 03-11-2020 00:00:00 11.48333 C 9.53 g/m*3 11.48 C 6.43333 km/h
505 03-11-2020 01:00:00 11.38333 C 8.97 g/m*3 11.38 C 6.56667 km/h
506 03-11-2020 02:00:00 11.275 C 8.83 g/m*3 11.28 C 4.68333 km/h
507 03-11-2020 03:00:00 11.48333 C 8.75 g/m*3 11.48 C 6.30833 km/h
508 03-11-2020 04:00:00 11.31667 C 8.71 g/m*3 11.32 C 6.15833 km/h
509 03-11-2020 05:00:00 11 C 8.59 g/m*3 11 C 3.475 km/h
510 03-11-2020 06:00:00 10.71667 C 8.41 g/m*3 10.72 C 3.46667 km/h
511 03-11-2020 07:00:00 10.24167 C 8.25 g/m*3 9.74 C 6.025 km/h
512 03-11-2020 08:00:00 9.46667 C 8.1 g/m*3 9.47 C 2.8 km/h
513 03-11-2020 09:00:00 9.13333 C 8.14 g/m*3 9.13 C 2.26667 km/h
514 03-11-2020 10:00:00 9.56667 C 8.38 g/m*3 9.57 C 4.68333 km/h
515 03-11-2020 11:00:00 11.00833 C 8.55 g/m*3 11.01 C 8.19167 km/h
516 03-11-2020 12:00:00 12.09167 C 8.54 g/m*3 12.09 C 11.16667 km/h
517 03-11-2020 13:00:00 12.61667 C 8.42 g/m*3 12.62 C 8.74167 km/h
518 03-11-2020 14:00:00 12.65833 C 8.18 g/m*3 12.66 C 6.71667 km/h
519 03-11-2020 15:00:00 12.78333 C 8.08 g/m*3 12.78 C 8.73333 km/h
520 03-11-2020 16:00:00 12.33333 C 7.95 g/m*3 12.33 C 4.01667 km/h
521 03-11-2020 17:00:00 11.59167 C 8.12 g/m*3 11.59 C 4.14167 km/h
522 03-11-2020 18:00:00 10.71667 C 8.47 g/m*3 10.33 C 5.88333 km/h
523 03-11-2020 19:00:00 9.01667 C 8 g/m*3 9.02 C 4.7 km/h
524 03-11-2020 20:00:00 7.69167 C 7.5 g/m*3 7.69 C 2.53333 km/h
525 03-11-2020 21:00:00 6.85 C 7.19 g/m*3 6.85 C 2.66667 km/h
Sensor: Nr:Datum:Temp:Abs-Feuchte:Windchill:Wind:
Aussen-T/F 526 03-11-2020 22:00:00 6.24167 C 6.95 g/m*3 6.24 C 2.26667 km/h
527 03-11-2020 23:00:00 5.875 C 6.84 g/m*3 5.88 C 1.06667 km/h
528 04-11-2020 00:00:00 5.08333 C 6.49 g/m*3 5.08 C 1.46667 km/h
529 04-11-2020 01:00:00 5.03333 C 6.5 g/m*3 5.03 C 1.46667 km/h
530 04-11-2020 02:00:00 4.99167 C 6.48 g/m*3 4.99 C 2.4 km/h
531 04-11-2020 03:00:00 4.325 C 6.2 g/m*3 4.33 C 1.33333 km/h
532 04-11-2020 04:00:00 3.74167 C 5.98 g/m*3 3.74 C 0.26667 km/h
533 04-11-2020 05:00:00 3.14167 C 5.75 g/m*3 3.14 C 0.4 km/h
534 04-11-2020 06:00:00 2.8 C 5.63 g/m*3 2.8 C 1.2 km/h
535 04-11-2020 07:00:00 2.54167 C 5.53 g/m*3 2.54 C 0 km/h
536 04-11-2020 08:00:00 2.50833 C 5.53 g/m*3 2.51 C 0 km/h
537 04-11-2020 09:00:00 3.13333 C 5.79 g/m*3 3.13 C 0 km/h
538 04-11-2020 10:00:00 3.525 C 5.95 g/m*3 3.53 C 0 km/h
539 04-11-2020 11:00:00 4.80833 C 6.51 g/m*3 4.81 C 0 km/h
540 04-11-2020 12:00:00 5.91667 C 7 g/m*3 5.92 C 0.4 km/h
541 04-11-2020 13:00:00 6.68333 C 7.36 g/m*3 6.68 C 3.33333 km/h
542 04-11-2020 14:00:00 7.64167 C 7.82 g/m*3 7.64 C 1.86667 km/h
543 04-11-2020 15:00:00 8.16667 C 7.8 g/m*3 8.17 C 2.4 km/h
544 04-11-2020 16:00:00 7.58333 C 7.37 g/m*3 7.58 C 3.33333 km/h
545 04-11-2020 17:00:00 6.375 C 6.83 g/m*3 6.38 C 0.66667 km/h
546 04-11-2020 18:00:00 5.28333 C 6.41 g/m*3 5.28 C 0.26667 km/h
547 04-11-2020 19:00:00 4.45 C 6.14 g/m*3 4.45 C 0 km/h
548 04-11-2020 20:00:00 3.575 C 5.82 g/m*3 3.58 C 0 km/h
549 04-11-2020 21:00:00 3.04167 C 5.66 g/m*3 3.04 C 0 km/h
550 04-11-2020 22:00:00 2.56667 C 5.49 g/m*3 2.57 C 0 km/h
Sensor: Nr:Datum:Temp:Abs-Feuchte:Windchill:Wind:
Aussen-T/F 551 04-11-2020 23:00:00 2.15 C 5.36 g/m*3 2.15 C 0 km/h
552 05-11-2020 00:00:00 1.775 C 5.24 g/m*3 1.78 C 0 km/h
553 05-11-2020 01:00:00 1.75833 C 5.25 g/m*3 1.76 C 0.53333 km/h
554 05-11-2020 02:00:00 2.2 C 5.41 g/m*3 2.2 C 0.4 km/h
555 05-11-2020 03:00:00 2.10833 C 5.37 g/m*3 2.11 C 0.26667 km/h
556 05-11-2020 04:00:00 2.09167 C 5.4 g/m*3 2.09 C 0 km/h
557 05-11-2020 05:00:00 2.24167 C 5.48 g/m*3 2.24 C 0 km/h
558 05-11-2020 06:00:00 2.3 C 5.5 g/m*3 2.3 C 0 km/h
559 05-11-2020 07:00:00 2.38 C 5.53 g/m*3 2.38 C 0.48 km/h
560 05-11-2020 12:00:00 3.76 C 6.07 g/m*3 3.76 C 3.36 km/h
561 05-11-2020 13:00:00 4.19167 C 6.25 g/m*3 4.19 C 2.66667 km/h
562 05-11-2020 14:00:00 4.2 C 6.25 g/m*3 4.2 C 2.93333 km/h
563 05-11-2020 15:00:00 4.43333 C 6.37 g/m*3 4.43 C 2 km/h
564 05-11-2020 16:00:00 4.39167 C 6.33 g/m*3 4.39 C 0 km/h
565 05-11-2020 17:00:00 4.18333 C 6.24 g/m*3 4.18 C 0.4 km/h
566 05-11-2020 18:00:00 3.79167 C 6.08 g/m*3 3.79 C 0.4 km/h
567 05-11-2020 19:00:00 3.39167 C 5.92 g/m*3 3.39 C 0 km/h
568 05-11-2020 20:00:00 3.325 C 5.89 g/m*3 3.33 C 0 km/h
569 05-11-2020 21:00:00 3.26667 C 5.87 g/m*3 3.27 C 0.93333 km/h
570 05-11-2020 22:00:00 3.23333 C 5.87 g/m*3 3.23 C 0 km/h
571 05-11-2020 23:00:00 3.31667 C 5.9 g/m*3 3.32 C 0.8 km/h
572 06-11-2020 00:00:00 3.075 C 5.8 g/m*3 3.08 C 0.66667 km/h
573 06-11-2020 01:00:00 2.675 C 5.65 g/m*3 2.68 C 1.6 km/h
574 06-11-2020 02:00:00 2.56667 C 5.63 g/m*3 2.57 C 1.46667 km/h
575 06-11-2020 03:00:00 2.65833 C 5.64 g/m*3 2.66 C 0.53333 km/h
Sensor: Nr:Datum:Temp:Abs-Feuchte:Windchill:Wind:
Aussen-T/F 576 06-11-2020 04:00:00 2.5 C 5.62 g/m*3 2.5 C 0.8 km/h
577 06-11-2020 05:00:00 2.48333 C 5.59 g/m*3 2.48 C 0.66667 km/h
578 06-11-2020 06:00:00 2.61667 C 5.66 g/m*3 2.62 C 0.26667 km/h
579 06-11-2020 07:00:00 2.54167 C 5.65 g/m*3 2.54 C 0.4 km/h
580 06-11-2020 08:00:00 2.54167 C 5.65 g/m*3 2.54 C 0.26667 km/h
581 06-11-2020 09:00:00 3.03333 C 5.84 g/m*3 3.03 C 0 km/h
582 06-11-2020 10:00:00 3.61667 C 6.07 g/m*3 3.62 C 0.53333 km/h
583 06-11-2020 11:00:00 4.11667 C 6.28 g/m*3 4.12 C 1.46667 km/h
584 06-11-2020 12:00:00 4.35 C 6.38 g/m*3 4.35 C 1.6 km/h
585 06-11-2020 13:00:00 5.11667 C 6.71 g/m*3 5.12 C 1.73333 km/h
586 06-11-2020 14:00:00 6.00833 C 7.12 g/m*3 6.01 C 3.86667 km/h
587 06-11-2020 15:00:00 6.35 C 7.28 g/m*3 6.35 C 3.73333 km/h
588 06-11-2020 16:00:00 5.65 C 6.95 g/m*3 5.65 C 3.6 km/h
589 06-11-2020 17:00:00 4.5 C 6.39 g/m*3 4.5 C 4.13333 km/h
590 06-11-2020 18:00:00 3.39167 C 5.91 g/m*3 3.39 C 1.06667 km/h
591 06-11-2020 19:00:00 2.425 C 5.49 g/m*3 2.42 C 0 km/h
592 06-11-2020 20:00:00 1.875 C 5.29 g/m*3 1.88 C 0 km/h
593 06-11-2020 21:00:00 1.45833 C 5.14 g/m*3 1.46 C 0 km/h
594 06-11-2020 22:00:00 1.24167 C 5.07 g/m*3 1.24 C 0 km/h
595 06-11-2020 23:00:00 0.89167 C 4.95 g/m*3 0.89 C 0 km/h
596 07-11-2020 00:00:00 0.79167 C 4.91 g/m*3 0.79 C 0 km/h
597 07-11-2020 01:00:00 0.64167 C 4.89 g/m*3 0.64 C 0 km/h
598 07-11-2020 02:00:00 0.50833 C 4.85 g/m*3 0.51 C 0 km/h
599 07-11-2020 03:00:00 0.39167 C 4.83 g/m*3 0.39 C 0 km/h
600 07-11-2020 04:00:00 0.36667 C 4.82 g/m*3 0.37 C 0 km/h
Sensor: Nr:Datum:Temp:Abs-Feuchte:Windchill:Wind:
Aussen-T/F 601 07-11-2020 05:00:00 0.3 C 4.8 g/m*3 0.3 C 0 km/h
602 07-11-2020 06:00:00 0.3 C 4.8 g/m*3 0.3 C 0 km/h
603 07-11-2020 07:00:00 0.30833 C 4.8 g/m*3 0.31 C 0 km/h
604 07-11-2020 08:00:00 0.71667 C 4.94 g/m*3 0.72 C 0 km/h
605 07-11-2020 09:00:00 1.48 C 5.2 g/m*3 1.48 C 0 km/h
606 07-11-2020 10:00:00 2.775 C 5.72 g/m*3 2.78 C 0.26667 km/h
607 07-11-2020 11:00:00 4.875 C 6.6 g/m*3 4.88 C 1.6 km/h
608 07-11-2020 12:00:00 6.59167 C 7.39 g/m*3 6.59 C 3.73333 km/h
609 07-11-2020 13:00:00 7.81667 C 8.01 g/m*3 7.82 C 3.6 km/h
610 07-11-2020 14:00:00 8.89167 C 8.58 g/m*3 8.89 C 4.8 km/h
611 07-11-2020 15:00:00 9.68333 C 8.87 g/m*3 9.68 C 4 km/h
612 07-11-2020 16:00:00 9.475 C 8.41 g/m*3 9.48 C 2.13333 km/h
613 07-11-2020 17:00:00 8.09167 C 7.62 g/m*3 8.09 C 2.13333 km/h
614 07-11-2020 18:00:00 7.41667 C 7.4 g/m*3 7.42 C 4.13333 km/h
615 07-11-2020 19:00:00 6.80833 C 7.12 g/m*3 6.81 C 1.6 km/h
616 07-11-2020 20:00:00 6.3 C 6.91 g/m*3 6.3 C 0 km/h
617 07-11-2020 21:00:00 5.6 C 6.65 g/m*3 5.6 C 0 km/h
618 07-11-2020 22:00:00 4.925 C 6.39 g/m*3 4.93 C 0 km/h
619 07-11-2020 23:00:00 4.225 C 6.13 g/m*3 4.22 C 0 km/h
620 08-11-2020 00:00:00 3.95 C 6.07 g/m*3 3.95 C 0 km/h
621 08-11-2020 01:00:00 3.45833 C 5.88 g/m*3 3.46 C 0 km/h
622 08-11-2020 02:00:00 3.20833 C 5.79 g/m*3 3.21 C 0 km/h
623 08-11-2020 03:00:00 2.84167 C 5.65 g/m*3 2.84 C 0 km/h
624 08-11-2020 04:00:00 2.625 C 5.57 g/m*3 2.63 C 0 km/h
625 08-11-2020 05:00:00 2.59167 C 5.59 g/m*3 2.59 C 0 km/h
Sensor: Nr:Datum:Temp:Abs-Feuchte:Windchill:Wind:
Aussen-T/F 626 08-11-2020 06:00:00 2.51667 C 5.56 g/m*3 2.52 C 0 km/h
627 08-11-2020 07:00:00 2.425 C 5.55 g/m*3 2.42 C 0 km/h
628 08-11-2020 08:00:00 2.775 C 5.68 g/m*3 2.78 C 0 km/h
629 08-11-2020 09:00:00 3.93333 C 6.15 g/m*3 3.93 C 0 km/h
630 08-11-2020 10:00:00 5.31667 C 6.79 g/m*3 5.32 C 0 km/h
631 08-11-2020 11:00:00 7.00833 C 7.59 g/m*3 7.01 C 0 km/h
632 08-11-2020 12:00:00 8.80833 C 8.46 g/m*3 8.81 C 0 km/h
633 08-11-2020 13:00:00 10.29167 C 9.07 g/m*3 10.29 C 0 km/h
634 08-11-2020 14:00:00 11.88333 C 9.5 g/m*3 11.88 C 0 km/h
635 08-11-2020 15:00:00 12.73333 C 9.76 g/m*3 12.73 C 0 km/h
636 08-11-2020 16:00:00 12.11667 C 9.5 g/m*3 12.12 C 0 km/h
637 08-11-2020 17:00:00 11.05 C 9.15 g/m*3 11.05 C 0 km/h
638 08-11-2020 18:00:00 10.68333 C 9.11 g/m*3 10.68 C 0 km/h
639 08-11-2020 19:00:00 10.56667 C 9.16 g/m*3 10.57 C 0 km/h
640 08-11-2020 20:00:00 10.25 C 9.05 g/m*3 10.25 C 0 km/h
641 08-11-2020 21:00:00 9.975 C 8.91 g/m*3 9.98 C 0 km/h
642 08-11-2020 22:00:00 9.61667 C 8.71 g/m*3 9.62 C 0 km/h
643 08-11-2020 23:00:00 9.40833 C 8.61 g/m*3 9.41 C 0 km/h
644 09-11-2020 00:00:00 9.45 C 8.71 g/m*3 9.45 C 0 km/h
645 09-11-2020 01:00:00 9.4 C 8.68 g/m*3 9.4 C 0 km/h
646 09-11-2020 02:00:00 9.35833 C 8.66 g/m*3 9.36 C 0 km/h
647 09-11-2020 03:00:00 9.325 C 8.65 g/m*3 9.32 C 1.34167 km/h
648 09-11-2020 04:00:00 9.19167 C 8.61 g/m*3 9.19 C 0 km/h
649 09-11-2020 05:00:00 8.425 C 8.19 g/m*3 8.43 C 0 km/h
650 09-11-2020 06:00:00 8.3 C 8.15 g/m*3 8.3 C 0 km/h
Sensor: Nr:Datum:Temp:Abs-Feuchte:Windchill:Wind:
Aussen-T/F 651 09-11-2020 07:00:00 8.075 C 8.05 g/m*3 8.07 C 0 km/h
652 09-11-2020 08:00:00 8.35 C 8.2 g/m*3 8.35 C 0 km/h
653 09-11-2020 09:00:00 8.96667 C 8.53 g/m*3 8.97 C 0 km/h
654 09-11-2020 10:00:00 9.76667 C 9 g/m*3 9.77 C 0 km/h
655 09-11-2020 11:00:00 11.00833 C 9.81 g/m*3 11.01 C 0 km/h
656 09-11-2020 12:00:00 11.8 C 10.29 g/m*3 11.8 C 0 km/h
657 09-11-2020 13:00:00 13.08333 C 11.07 g/m*3 13.08 C 0 km/h
658 09-11-2020 14:00:00 13.675 C 10.94 g/m*3 13.68 C 0.53333 km/h
659 09-11-2020 15:00:00 13.21667 C 10.69 g/m*3 13.22 C 0.26667 km/h
660 09-11-2020 16:00:00 12.48333 C 10.29 g/m*3 12.48 C 0.26667 km/h
661 09-11-2020 17:00:00 11.51667 C 9.74 g/m*3 11.52 C 2.8 km/h
662 09-11-2020 18:00:00 10.46667 C 9.19 g/m*3 10.47 C 0.8 km/h
663 09-11-2020 19:00:00 9.66667 C 8.79 g/m*3 9.67 C 0 km/h
664 09-11-2020 20:00:00 9.08333 C 8.51 g/m*3 9.08 C 0.4 km/h
665 09-11-2020 21:00:00 8.16667 C 8.02 g/m*3 8.17 C 0 km/h
666 09-11-2020 22:00:00 7.225 C 7.55 g/m*3 7.23 C 0 km/h
667 09-11-2020 23:00:00 6.63333 C 7.26 g/m*3 6.63 C 0 km/h
668 10-11-2020 00:00:00 6.11667 C 7.05 g/m*3 6.12 C 0 km/h
669 10-11-2020 01:00:00 6.175 C 7.12 g/m*3 6.18 C 0 km/h
670 10-11-2020 02:00:00 6.06667 C 7.07 g/m*3 6.07 C 0 km/h
671 10-11-2020 03:00:00 6.1 C 7.09 g/m*3 6.1 C 0 km/h
672 10-11-2020 04:00:00 6.00833 C 7.04 g/m*3 6.01 C 0 km/h
673 10-11-2020 05:00:00 5.74167 C 6.92 g/m*3 5.74 C 0 km/h
674 10-11-2020 06:00:00 5.71667 C 6.91 g/m*3 5.72 C 0 km/h
675 10-11-2020 07:00:00 5.7 C 6.9 g/m*3 5.7 C 0 km/h
Sensor: Nr:Datum:Temp:Abs-Feuchte:Windchill:Wind:
Aussen-T/F 676 10-11-2020 08:00:00 5.70833 C 6.91 g/m*3 5.71 C 0.13333 km/h
677 10-11-2020 09:00:00 5.98333 C 7.08 g/m*3 5.98 C 0.13333 km/h
678 10-11-2020 10:00:00 6.49167 C 7.33 g/m*3 6.49 C 0 km/h
679 10-11-2020 11:00:00 7.49167 C 7.84 g/m*3 7.49 C 0 km/h
680 10-11-2020 12:00:00 8.10833 C 8.16 g/m*3 8.11 C 0 km/h
681 10-11-2020 13:00:00 8.65 C 8.45 g/m*3 8.65 C 0.13333 km/h
682 10-11-2020 14:00:00 9.78333 C 9.08 g/m*3 9.78 C 0 km/h
683 10-11-2020 15:00:00 10.25833 C 9.27 g/m*3 10.26 C 0 km/h
684 10-11-2020 16:00:00 9.625 C 8.84 g/m*3 9.63 C 0 km/h
685 10-11-2020 17:00:00 7.84167 C 7.84 g/m*3 7.84 C 0 km/h
686 10-11-2020 18:00:00 6.75 C 7.32 g/m*3 6.75 C 0 km/h
687 10-11-2020 19:00:00 6.66667 C 7.33 g/m*3 6.67 C 0 km/h
688 10-11-2020 20:00:00 6.58333 C 7.31 g/m*3 6.58 C 0 km/h
689 10-11-2020 21:00:00 7.16667 C 7.6 g/m*3 7.17 C 0 km/h
690 10-11-2020 22:00:00 7.54167 C 7.79 g/m*3 7.54 C 0 km/h
691 10-11-2020 23:00:00 7.725 C 7.88 g/m*3 7.73 C 0 km/h
692 11-11-2020 00:00:00 7.7 C 7.87 g/m*3 7.7 C 0 km/h
693 11-11-2020 01:00:00 7.76667 C 7.9 g/m*3 7.77 C 0 km/h
694 11-11-2020 02:00:00 7.76667 C 7.9 g/m*3 7.77 C 0 km/h
695 11-11-2020 03:00:00 7.79167 C 7.91 g/m*3 7.79 C 0 km/h
696 11-11-2020 04:00:00 7.825 C 7.93 g/m*3 7.83 C 0 km/h
697 11-11-2020 05:00:00 7.89167 C 7.96 g/m*3 7.89 C 0 km/h
698 11-11-2020 06:00:00 7.9 C 7.97 g/m*3 7.9 C 0 km/h
699 11-11-2020 07:00:00 7.91667 C 7.98 g/m*3 7.92 C 0 km/h
700 11-11-2020 08:00:00 8.08333 C 8.06 g/m*3 8.08 C 0 km/h
Sensor: Nr:Datum:Temp:Abs-Feuchte:Windchill:Wind:
Aussen-T/F 701 11-11-2020 09:00:00 8.40833 C 8.23 g/m*3 8.41 C 0 km/h
702 11-11-2020 10:00:00 9.05 C 8.54 g/m*3 9.05 C 0.53333 km/h
703 11-11-2020 11:00:00 9.9 C 8.8 g/m*3 8.97 C 7.64167 km/h
704 11-11-2020 12:00:00 10 C 8.74 g/m*3 10 C 1.46667 km/h
705 11-11-2020 13:00:00 10.69167 C 9.05 g/m*3 10.69 C 2.675 km/h
706 11-11-2020 14:00:00 11.29167 C 9.24 g/m*3 11.29 C 2.66667 km/h
707 11-11-2020 15:00:00 11.28333 C 9.16 g/m*3 11.28 C 5.89167 km/h
708 11-11-2020 16:00:00 10.95833 C 9.08 g/m*3 10.96 C 4.69167 km/h
709 11-11-2020 17:00:00 10.45833 C 8.8 g/m*3 10.46 C 4.15833 km/h
710 11-11-2020 18:00:00 9.675 C 8.47 g/m*3 8.5 C 8.59167 km/h
711 11-11-2020 19:00:00 9.05 C 8.23 g/m*3 7.41 C 10.46667 km/h
712 11-11-2020 20:00:00 8.775 C 8.08 g/m*3 8.78 C 3.6 km/h
713 11-11-2020 21:00:00 8.7 C 8.09 g/m*3 8.7 C 1.06667 km/h
714 11-11-2020 22:00:00 8.76667 C 8.16 g/m*3 8.77 C 0.13333 km/h
715 11-11-2020 23:00:00 8.8 C 8.18 g/m*3 8.8 C 0 km/h
716 12-11-2020 00:00:00 8.81667 C 8.19 g/m*3 8.82 C 0.8 km/h
717 12-11-2020 01:00:00 8.89167 C 8.23 g/m*3 8.89 C 0.26667 km/h
718 12-11-2020 02:00:00 8.9 C 8.23 g/m*3 8.9 C 0 km/h
719 12-11-2020 03:00:00 8.9 C 8.23 g/m*3 8.9 C 0 km/h
720 12-11-2020 04:00:00 8.925 C 8.32 g/m*3 8.93 C 0 km/h
721 12-11-2020 05:00:00 8.88333 C 8.31 g/m*3 8.88 C 0 km/h
722 12-11-2020 06:00:00 9.19167 C 8.39 g/m*3 9.19 C 3.33333 km/h
723 12-11-2020 07:00:00 9.6 C 8.44 g/m*3 9.6 C 4.54167 km/h
724 12-11-2020 08:00:00 9.975 C 8.54 g/m*3 9.98 C 2.4 km/h
725 12-11-2020 09:00:00 10.49167 C 8.76 g/m*3 10.49 C 3.46667 km/h
Sensor: Nr:Datum:Temp:Abs-Feuchte:Windchill:Wind:
Aussen-T/F 726 12-11-2020 10:00:00 11.175 C 9.08 g/m*3 11.18 C 1.86667 km/h
727 12-11-2020 11:00:00 11.86667 C 9.4 g/m*3 11.87 C 2.68333 km/h
728 12-11-2020 12:00:00 12.00833 C 9.22 g/m*3 12.01 C 10.625 km/h
729 12-11-2020 13:00:00 12.30833 C 8.97 g/m*3 12.31 C 11.69167 km/h
730 12-11-2020 14:00:00 12.475 C 8.93 g/m*3 12.48 C 6.98333 km/h
731 12-11-2020 15:00:00 12.11667 C 8.93 g/m*3 12.12 C 4.275 km/h
732 12-11-2020 16:00:00 11.525 C 8.34 g/m*3 11.53 C 6.55833 km/h
733 12-11-2020 17:00:00 9.48333 C 7.89 g/m*3 9.07 C 5.33333 km/h
734 12-11-2020 18:00:00 8.26667 C 7.57 g/m*3 8.27 C 4.8 km/h
735 12-11-2020 19:00:00 7.40833 C 7.24 g/m*3 7.41 C 1.06667 km/h
736 12-11-2020 20:00:00 6.775 C 7.12 g/m*3 6.78 C 2.26667 km/h
737 12-11-2020 21:00:00 5.9 C 6.72 g/m*3 5.9 C 0.4 km/h
738 12-11-2020 22:00:00 4.61667 C 6.22 g/m*3 4.62 C 0 km/h
739 12-11-2020 23:00:00 3.85 C 5.96 g/m*3 3.85 C 0 km/h
740 13-11-2020 00:00:00 3.35 C 5.78 g/m*3 3.35 C 0 km/h
741 13-11-2020 01:00:00 2.89167 C 5.63 g/m*3 2.89 C 0 km/h
742 13-11-2020 02:00:00 2.375 C 5.45 g/m*3 2.38 C 0.13333 km/h
743 13-11-2020 03:00:00 2.46667 C 5.51 g/m*3 2.47 C 0 km/h
744 13-11-2020 04:00:00 2.75833 C 5.63 g/m*3 2.76 C 0.4 km/h
745 13-11-2020 05:00:00 2.68333 C 5.59 g/m*3 2.68 C 0.53333 km/h
746 13-11-2020 06:00:00 2.6 C 5.61 g/m*3 2.6 C 0.26667 km/h
747 13-11-2020 07:00:00 2.63333 C 5.63 g/m*3 2.63 C 0.4 km/h
748 13-11-2020 08:00:00 2.7 C 5.65 g/m*3 2.7 C 0.53333 km/h
749 13-11-2020 09:00:00 2.875 C 5.72 g/m*3 2.88 C 1.46667 km/h
750 13-11-2020 10:00:00 3.38333 C 5.92 g/m*3 3.38 C 0.4 km/h
Sensor: Nr:Datum:Temp:Abs-Feuchte:Windchill:Wind:
Aussen-T/F 751 13-11-2020 11:00:00 4.525 C 6.41 g/m*3 4.53 C 0.53333 km/h
752 13-11-2020 12:00:00 5.60833 C 6.93 g/m*3 5.61 C 0 km/h
753 13-11-2020 13:00:00 8.175 C 8.19 g/m*3 8.18 C 0.8 km/h
754 13-11-2020 14:00:00 9.525 C 8.91 g/m*3 9.53 C 0.26667 km/h
755 13-11-2020 15:00:00 10.39167 C 9.3 g/m*3 10.39 C 0.4 km/h
756 13-11-2020 16:00:00 10.68333 C 9.33 g/m*3 10.68 C 0.13333 km/h
757 13-11-2020 17:00:00 10.775 C 9.38 g/m*3 10.78 C 0.26667 km/h
758 13-11-2020 18:00:00 11.18333 C 9.57 g/m*3 11.18 C 0.66667 km/h
759 13-11-2020 19:00:00 11.63333 C 9.81 g/m*3 11.63 C 2.13333 km/h
760 13-11-2020 20:00:00 11.875 C 9.83 g/m*3 11.88 C 1.33333 km/h
761 13-11-2020 21:00:00 11.54167 C 9.64 g/m*3 11.54 C 0.4 km/h
762 13-11-2020 22:00:00 11.30833 C 9.58 g/m*3 11.31 C 0.66667 km/h
763 13-11-2020 23:00:00 10.91667 C 9.36 g/m*3 10.92 C 0 km/h

Maximal/Minimal-Werte vom 23.02.2003 - 30.09.2020

Sensor Min Max Avg
Temp
(Aussen-T/F)
-16.4 °C
20-12-2009  01:30:01
40.4 °C
25-07-2019  16:20:00
11.32 °C

Die Daten stammen von einer Davis Vantage Pro 2 Wetter-Station und werden unter Linux mit der Software wview2wettercgi und aufbereitet. Alle Angaben erfolgen ohne Gewähr für ihre Vollständigkeit oder Richtigkeit.
Kontakt: Rainer Krienke krienke@uni-koblenz.de . Meine Webseiten an der Uni Koblenz oder privat.
Version: $Revision: 0.78 $